Airfield :
LOGIN :

Register | Disclaimer

   EN    FR    IT 

 










Legend :    VFR   Marginal VFR   IFR   Intensive IFR   Very Intensive IFR
Visi :
Ceiling :
>= 8 km
>= 3000ft
5 to 8 km
1000 to 3000 ft
1500m to 5 km
500 to 1000 ft
800 to 1500m
200 to 500 ft
< 800m
< 200 ft
Symbols :   Thunderstorms  Fog  Heavy snow  Heavy precipitations  Wind > 20 kt
SIGMETs :     Misc.  Thunderstorms  Icing  Turbulence  Mountain Waves  Volcanic Ashes






- Airport Elevation : 14 ft
- IATA code : BRE


EDDW - Bremen Neuenland

CURRENT METAR :
  • 171950Z 27005KT CAVOK 10/09 Q1016 NOSIG

EXPIRED METARs :
  • 171920Z 30003KT CAVOK 12/09 Q1015 NOSIG
  • 171850Z 34006KT CAVOK 14/10 Q1015 NOSIG
  • 171820Z 30004KT 280V350 CAVOK 14/10 Q1015 NOSIG
  • 171750Z 32006KT 9999 FEW027 15/10 Q1015 NOSIG
  • 171720Z 34008KT 9999 FEW027 16/10 Q1015 NOSIG

TAF TAF EDDW
Valid from the 17 at 18:00 until the 18 at 18:00 UTC


171700Z 1718/1818 33006KT 9999 SCT030
BECMG 1719/1721 VRB03KT
PROB40
TEMPO 1722/1802 2000 BCFG
TEMPO 1801/1807 0900 FG
PROB40
TEMPO 1801/1806 0400 FG BKN001
BECMG 1806/1808 4000 BR BKN005
BECMG 1808/1811 06005KT 9999 SCT025



MET'MAP, your aeronautical weather chart ! - Copyright ORBIFLY December 2007 - Disclaimer

ORBIFLY MET'MAP TEAM :

Programming & Development : Alexandra Zaïnal
Concept & original design : Baudouin d'Aumeries
Assistance for programming : Marc-Olivier Méhu
Technical & hardware support : Manuel Goepfert

Contact : metmap@orbifly.com




SOURCES & CREDITS :

   NOAA